createdAt,value
2018-11-21T00:06:33.927Z,40.35
2018-11-21T01:00:13.528Z,38.30
2018-11-21T01:02:54.824Z,38.98
2018-11-21T01:05:35.429Z,41.85
2018-11-21T01:08:15.977Z,47.73
2018-11-21T01:10:54.554Z,39.10
2018-11-21T01:25:30.691Z,43.73
2018-11-21T01:43:07.483Z,39.42
2018-11-21T03:06:37.277Z,42.60
2018-11-21T03:27:25.275Z,47.90
2018-11-21T03:56:55.636Z,43.65
2018-11-21T04:23:39.602Z,51.63
2018-11-21T04:41:28.739Z,46.02
2018-11-21T04:44:09.781Z,49.00
2018-11-21T04:49:40.145Z,45.08
2018-11-21T04:52:08.777Z,42.25
2018-11-21T04:54:37.298Z,41.70
2018-11-21T04:57:05.918Z,48.28
2018-11-21T04:59:34.590Z,46.95
2018-11-21T05:02:02.947Z,44.63
2018-11-21T05:04:31.282Z,49.35
2018-11-21T05:06:59.682Z,48.02
2018-11-21T05:09:28.072Z,45.90
2018-11-21T05:11:56.381Z,48.40
2018-11-21T05:14:24.759Z,45.85
2018-11-21T05:16:53.099Z,42.25
2018-11-21T05:19:21.447Z,42.13
2018-11-21T05:21:49.850Z,45.20
2018-11-21T05:24:18.175Z,44.45
2018-11-21T05:26:46.893Z,43.40
2018-11-21T05:29:15.242Z,48.28
2018-11-21T05:31:43.574Z,44.25
2018-11-21T05:34:11.947Z,48.48
2018-11-21T05:36:41.132Z,47.03
2018-11-21T05:39:11.148Z,43.23
2018-11-21T05:41:39.529Z,49.35
2018-11-21T05:44:08.027Z,50.12
2018-11-21T05:46:36.662Z,49.77
2018-11-21T05:49:05.972Z,44.00
2018-11-21T05:51:34.754Z,41.08
2018-11-21T05:54:03.126Z,46.37
2018-11-21T05:56:31.521Z,49.93
2018-11-21T05:58:59.887Z,42.95
2018-11-21T06:01:28.311Z,48.98
2018-11-21T06:03:56.890Z,47.53
2018-11-21T06:06:25.596Z,52.48
2018-11-21T06:08:53.982Z,41.30
2018-11-21T06:11:22.378Z,46.20
2018-11-21T06:13:50.986Z,42.35
2018-11-21T06:16:19.359Z,41.65
2018-11-21T06:18:47.991Z,45.63
2018-11-21T06:21:16.630Z,45.30
2018-11-21T06:23:44.993Z,41.35
2018-11-21T06:26:13.304Z,49.67
2018-11-21T06:28:42.008Z,47.62
2018-11-21T06:31:10.341Z,49.45
2018-11-21T06:33:38.674Z,46.73
2018-11-21T06:36:07.070Z,45.30
2018-11-21T06:38:35.686Z,50.52
2018-11-21T06:41:04.212Z,39.40
2018-11-21T06:43:32.588Z,43.73
2018-11-21T06:46:00.934Z,42.48
2018-11-21T06:48:29.368Z,42.13
2018-11-21T06:50:58.089Z,42.00
2018-11-21T06:53:26.441Z,47.80
2018-11-21T06:55:55.097Z,47.83
2018-11-21T06:58:24.125Z,40.25
2018-11-21T07:00:52.453Z,43.63
2018-11-21T07:03:20.910Z,47.50
2018-11-21T07:05:49.290Z,49.85
2018-11-21T07:08:17.662Z,43.02
2018-11-21T07:10:46.098Z,41.77
2018-11-21T07:13:14.496Z,47.75
2018-11-21T07:15:42.858Z,43.73
2018-11-21T07:18:11.289Z,43.87
2018-11-21T07:20:39.664Z,46.75
2018-11-21T07:23:08.013Z,41.55
2018-11-21T07:25:36.350Z,47.38
2018-11-21T07:28:04.719Z,44.85
2018-11-21T07:30:33.491Z,43.55
2018-11-21T07:33:01.879Z,41.18
2018-11-21T07:35:30.382Z,41.05
2018-11-21T07:37:58.817Z,43.65
2018-11-21T07:40:27.120Z,43.28
2018-11-21T07:42:55.487Z,51.40
2018-11-21T07:45:24.242Z,46.40
2018-11-21T07:47:52.627Z,48.42
2018-11-21T07:50:21.657Z,45.23
2018-11-21T07:52:49.981Z,46.55
2018-11-21T07:55:18.722Z,50.50
2018-11-21T07:57:54.958Z,44.93
2018-11-21T08:00:57.088Z,40.98
2018-11-21T08:03:27.030Z,49.55
2018-11-21T08:05:58.076Z,44.20
2018-11-21T08:08:45.718Z,45.50
2018-11-21T08:11:23.993Z,44.60
2018-11-21T08:14:01.512Z,40.95
2018-11-21T08:17:00.318Z,45.12
2018-11-21T08:19:43.181Z,49.20
2018-11-21T08:22:23.359Z,50.05
2018-11-21T08:25:09.351Z,45.80
2018-11-21T08:27:52.233Z,47.17
2018-11-21T08:30:20.648Z,44.03
2018-11-21T08:32:48.956Z,50.43
2018-11-21T08:35:17.781Z,49.27
2018-11-21T08:37:46.223Z,45.90
2018-11-21T08:40:14.619Z,40.83
2018-11-21T08:42:43.025Z,44.18
2018-11-21T08:45:11.432Z,43.50
2018-11-21T08:47:39.772Z,43.02
2018-11-21T08:50:10.466Z,44.38
2018-11-21T08:52:38.833Z,44.13
2018-11-21T08:55:09.060Z,43.45
2018-11-21T08:57:36.671Z,43.30
2018-11-21T09:00:06.364Z,41.98
2018-11-21T09:02:34.740Z,42.65
2018-11-21T09:05:03.162Z,48.95
2018-11-21T09:07:31.760Z,46.00
2018-11-21T09:10:00.452Z,40.83
2018-11-21T09:12:29.582Z,44.48
2018-11-21T09:14:57.839Z,46.20
2018-11-21T09:17:26.195Z,44.00
2018-11-21T09:19:54.559Z,38.53
2018-11-21T09:22:22.943Z,41.28
2018-11-21T09:24:51.716Z,38.70
2018-11-21T09:27:20.613Z,44.13
2018-11-21T09:29:49.222Z,45.65
2018-11-21T09:32:17.611Z,40.60
2018-11-21T09:34:46.131Z,40.60
2018-11-21T09:37:14.817Z,39.92
2018-11-21T09:39:43.190Z,47.13
2018-11-21T09:42:11.536Z,43.92
2018-11-21T09:44:40.517Z,40.50
2018-11-21T09:47:08.902Z,41.37
2018-11-21T09:49:37.303Z,41.88
2018-11-21T09:52:05.732Z,38.90
2018-11-21T09:54:34.097Z,41.83
2018-11-21T09:57:02.721Z,46.13
2018-11-21T09:59:31.136Z,46.13
2018-11-21T10:02:36.576Z,46.70
2018-11-21T10:05:05.367Z,41.85
2018-11-21T10:07:35.431Z,46.25
2018-11-21T10:10:03.778Z,44.60
2018-11-21T10:12:32.165Z,43.73
2018-11-21T10:15:00.503Z,49.23
2018-11-21T10:17:28.882Z,51.20
2018-11-21T10:19:57.262Z,50.28
2018-11-21T10:22:25.627Z,51.50
2018-11-21T10:24:54.360Z,61.70
2018-11-21T10:27:23.070Z,52.93
2018-11-21T10:29:51.413Z,51.35
2018-11-21T10:32:19.829Z,47.00
2018-11-21T10:34:48.156Z,46.83
2018-11-21T10:37:16.839Z,49.23
2018-11-21T10:39:45.182Z,50.73
2018-11-21T10:42:13.524Z,52.80
2018-11-21T10:44:41.985Z,45.43
2018-11-21T10:47:10.657Z,49.20
2018-11-21T10:49:58.311Z,49.77
2018-11-21T10:52:46.014Z,57.05
2018-11-21T10:55:33.657Z,51.18
2018-11-21T10:58:21.333Z,53.08
2018-11-21T11:01:28.287Z,43.23
2018-11-21T11:07:51.896Z,46.95
2018-11-21T11:10:58.937Z,49.58
2018-11-21T11:14:06.006Z,48.17
2018-11-21T11:17:12.981Z,50.98
2018-11-21T11:20:20.101Z,51.33
2018-11-21T11:23:27.079Z,49.93
2018-11-21T11:26:25.723Z,54.40
2018-11-21T11:29:32.904Z,45.95
2018-11-21T11:32:39.881Z,52.03
2018-11-21T11:35:46.914Z,44.67
2018-11-21T11:38:53.905Z,50.78
2018-11-21T11:42:00.862Z,52.27
2018-11-21T11:45:07.998Z,48.98
2018-11-21T11:48:14.969Z,49.00
2018-11-21T11:51:21.948Z,50.65
2018-11-21T11:54:28.963Z,55.28
2018-11-21T11:57:35.930Z,50.90
2018-11-21T12:00:43.014Z,52.43
2018-11-21T12:03:50.014Z,50.23
2018-11-21T12:06:57.131Z,50.38
2018-11-21T12:10:04.451Z,51.60
2018-11-21T12:13:11.791Z,46.98
2018-11-21T12:16:18.780Z,48.33
2018-11-21T12:19:25.773Z,49.95
2018-11-21T12:22:32.846Z,45.40
2018-11-21T12:25:39.831Z,50.17
2018-11-21T12:28:36.501Z,50.70
2018-11-21T12:31:43.546Z,53.73
2018-11-21T12:34:50.545Z,46.28
2018-11-21T12:37:57.498Z,49.10
2018-11-21T12:41:04.561Z,52.38
2018-11-21T12:44:11.569Z,45.73
2018-11-21T12:47:18.591Z,53.75
2018-11-21T12:50:25.540Z,56.95
2018-11-21T12:53:32.631Z,51.70
2018-11-21T12:56:39.608Z,46.98
2018-11-21T12:59:37.968Z,45.38
2018-11-21T13:05:46.718Z,52.00
2018-11-21T13:08:53.698Z,49.18
2018-11-21T13:11:49.146Z,42.60
2018-11-21T13:14:56.129Z,43.68
2018-11-21T13:18:03.133Z,48.48
2018-11-21T13:21:10.085Z,45.75
2018-11-21T13:24:17.075Z,46.63
2018-11-21T13:27:24.044Z,44.30
2018-11-21T13:30:31.103Z,45.03
2018-11-21T13:33:24.492Z,45.98
2018-11-21T13:36:31.588Z,47.98
2018-11-21T13:39:38.609Z,40.17
2018-11-21T13:42:45.635Z,41.92
2018-11-21T13:45:52.616Z,43.40
2018-11-21T13:48:59.699Z,45.55
2018-11-21T13:52:06.796Z,42.20
2018-11-21T13:55:13.884Z,44.75
2018-11-21T13:58:01.591Z,43.02
2018-11-21T14:00:49.284Z,41.48
2018-11-21T14:03:37.187Z,46.25
2018-11-21T14:06:25.027Z,46.10
2018-11-21T14:09:18.378Z,42.48
2018-11-21T14:12:06.048Z,47.75
2018-11-21T14:14:53.689Z,46.83
2018-11-21T14:17:41.358Z,49.48
2018-11-21T14:20:28.991Z,45.48
2018-11-21T14:23:17.245Z,48.20
2018-11-21T14:26:04.915Z,47.38
2018-11-21T14:28:52.924Z,50.73
2018-11-21T14:31:40.738Z,44.40
2018-11-21T14:34:28.422Z,49.38
2018-11-21T14:37:16.095Z,43.75
2018-11-21T14:40:03.787Z,51.35
2018-11-21T14:42:51.441Z,43.15
2018-11-21T14:45:39.352Z,47.13
2018-11-21T14:48:26.998Z,50.48
2018-11-21T14:51:14.708Z,43.78
2018-11-21T14:54:02.390Z,44.00
2018-11-21T14:56:50.057Z,42.23
2018-11-21T14:59:38.068Z,45.63
2018-11-21T15:02:25.758Z,46.00
2018-11-21T15:05:13.814Z,49.73
2018-11-21T15:08:01.581Z,46.95
2018-11-21T15:10:49.256Z,53.17
2018-11-21T15:13:36.940Z,44.90
2018-11-21T15:16:24.845Z,45.63
2018-11-21T15:21:46.855Z,51.40
2018-11-21T15:24:34.532Z,49.10
2018-11-21T15:27:22.184Z,45.28
2018-11-21T15:30:09.858Z,42.65
2018-11-21T15:32:57.785Z,50.58
2018-11-21T15:35:45.494Z,45.67
2018-11-21T15:38:33.153Z,49.40
2018-11-21T15:41:20.827Z,45.30
2018-11-21T15:44:08.494Z,44.77
2018-11-21T15:46:56.317Z,47.38
2018-11-21T15:49:43.981Z,50.45
2018-11-21T15:52:31.736Z,49.00
2018-11-21T15:55:19.675Z,46.42
2018-11-21T15:58:07.370Z,48.90
2018-11-21T16:00:55.046Z,48.10
2018-11-21T16:03:42.726Z,42.78
2018-11-21T16:06:30.574Z,42.65
2018-11-21T16:09:18.259Z,50.48
2018-11-21T16:12:05.911Z,44.63
2018-11-21T16:14:53.589Z,50.70
2018-11-21T16:17:41.285Z,46.18
2018-11-21T16:20:28.972Z,52.20
2018-11-21T16:23:16.584Z,45.05
2018-11-21T16:26:04.278Z,48.73
2018-11-21T16:28:52.176Z,48.90
2018-11-21T16:31:39.884Z,46.53
2018-11-21T16:34:27.686Z,43.68
2018-11-21T16:37:15.347Z,45.12
2018-11-21T16:42:58.061Z,46.00
2018-11-21T16:45:47.714Z,47.53
2018-11-21T16:48:35.379Z,48.50
2018-11-21T16:51:03.737Z,45.43
2018-11-21T16:53:35.171Z,44.10
2018-11-21T16:56:00.788Z,48.38
2018-11-21T16:58:29.169Z,54.70
2018-11-21T17:00:57.572Z,48.30
2018-11-21T17:03:25.981Z,49.25
2018-11-21T17:05:54.611Z,50.65
2018-11-21T17:08:23.189Z,50.70
2018-11-21T17:10:51.867Z,49.30
2018-11-21T17:13:20.746Z,47.73
2018-11-21T17:15:49.176Z,45.73
2018-11-21T17:18:17.548Z,49.58
2018-11-21T17:20:46.601Z,50.88
2018-11-21T17:23:15.424Z,52.90
2018-11-21T17:25:44.135Z,53.65
2018-11-21T17:28:12.580Z,47.00
2018-11-21T17:30:41.041Z,50.92
2018-11-21T17:33:09.385Z,50.65
2018-11-21T17:35:37.779Z,56.02
2018-11-21T17:38:06.113Z,53.80
2018-11-21T17:40:36.380Z,46.85
2018-11-21T17:43:05.146Z,46.88
2018-11-21T17:45:35.579Z,50.23
2018-11-21T17:48:04.159Z,52.27
2018-11-21T17:50:32.585Z,55.28
2018-11-21T17:53:02.367Z,53.00
2018-11-21T17:55:31.547Z,53.75
2018-11-21T17:57:59.963Z,54.33
2018-11-21T18:00:30.194Z,60.40
2018-11-21T18:02:58.524Z,62.23
2018-11-21T18:05:31.732Z,54.67
2018-11-21T18:08:00.059Z,57.60
2018-11-21T18:10:30.527Z,65.08
2018-11-21T18:12:58.907Z,56.40
2018-11-21T18:15:27.275Z,58.33
2018-11-21T18:17:55.624Z,56.02
2018-11-21T18:20:24.028Z,52.35
2018-11-21T18:22:52.936Z,55.98
2018-11-21T18:25:23.295Z,56.28
2018-11-21T18:27:52.007Z,59.58
2018-11-21T18:30:22.006Z,60.20
2018-11-21T18:32:50.740Z,64.50
2018-11-21T18:35:20.468Z,59.50
2018-11-21T18:37:49.091Z,62.58
2018-11-21T18:40:22.172Z,54.75
2018-11-21T18:42:50.586Z,54.38
2018-11-21T18:45:24.547Z,59.03
2018-11-21T18:47:52.948Z,62.17
2018-11-21T18:50:21.843Z,58.20
2018-11-21T18:52:51.446Z,60.17
2018-11-21T18:55:22.084Z,61.45
2018-11-21T18:58:29.422Z,55.78
2018-11-21T19:00:57.795Z,56.65
2018-11-21T19:03:26.299Z,55.40
2018-11-21T19:05:54.782Z,54.35
2018-11-21T19:08:23.175Z,65.70
2018-11-21T19:10:52.183Z,62.00
2018-11-21T19:13:21.220Z,55.92
2018-11-21T19:15:49.595Z,57.95
2018-11-21T19:18:17.952Z,60.55
2018-11-21T19:20:46.571Z,52.45
2018-11-21T19:23:14.930Z,54.27
2018-11-21T19:25:43.311Z,58.48
2018-11-21T19:28:11.727Z,59.35
